Time;durP1;ratioP1;P1;durP2;ratioP2;P2;SDS_P1;SDS_P2;PMS_P1;PMS_P2;Temp;Humidity;BMP_temperature;BMP_pressure;BME280_temperature;BME280_humidity;BME280_pressure;Samples;Min_cycle;Max_cycle;Signal;HPM_P1;HPM_P2
2021/03/04 00:01:34;;;;;;;6.50;2.70;;;13.30;99.90;;;;;;5126174;28;20227;-89
2021/03/04 00:04:06;;;;;;;5.37;2.20;;;13.10;99.90;;;;;;5087265;28;20207;-90
2021/03/04 00:06:36;;;;;;;8.97;2.40;;;13.00;99.90;;;;;;5102596;28;20199;-90
2021/03/04 00:09:12;;;;;;;6.87;2.17;;;12.90;99.90;;;;;;5083376;28;20289;-91
2021/03/04 00:11:42;;;;;;;7.53;2.40;;;12.90;99.90;;;;;;5082907;28;20287;-91
2021/03/04 00:14:13;;;;;;;5.83;2.57;;;12.90;99.90;;;;;;5117649;28;20206;-87
2021/03/04 00:16:44;;;;;;;5.23;2.43;;;13.00;99.90;;;;;;5117547;28;20217;-88
2021/03/04 00:19:16;;;;;;;6.00;2.67;;;13.00;99.90;;;;;;5120436;28;20741;-89
2021/03/04 00:21:47;;;;;;;6.60;3.37;;;12.90;99.90;;;;;;5119834;28;20669;-89
2021/03/04 00:24:19;;;;;;;7.80;2.47;;;12.80;99.90;;;;;;5118739;28;20213;-89
2021/03/04 00:26:50;;;;;;;8.40;2.70;;;12.80;99.90;;;;;;5120635;28;20232;-89
2021/03/04 00:29:20;;;;;;;6.40;2.80;;;12.80;99.90;;;;;;5120545;28;20267;-89
2021/03/04 00:31:50;;;;;;;6.03;2.47;;;12.90;99.90;;;;;;5119533;28;20253;-89
2021/03/04 00:34:21;;;;;;;8.37;2.90;;;12.90;99.90;;;;;;5119372;28;20252;-90
2021/03/04 00:36:51;;;;;;;11.43;3.30;;;12.90;99.90;;;;;;5121607;28;20680;-89
2021/03/04 00:39:24;;;;;;;5.97;2.53;;;12.90;99.90;;;;;;5121081;28;20206;-88
2021/03/04 00:41:54;;;;;;;10.70;3.10;;;12.80;99.90;;;;;;5121327;28;20210;-91
2021/03/04 00:44:25;;;;;;;7.77;2.87;;;12.70;99.90;;;;;;5103105;28;20318;-92
2021/03/04 00:46:55;;;;;;;9.60;3.20;;;12.60;99.90;;;;;;5121696;28;20247;-92
2021/03/04 00:49:28;;;;;;;7.00;2.87;;;12.60;99.90;;;;;;5101348;28;20298;-92
2021/03/04 00:51:59;;;;;;;7.80;3.10;;;12.60;99.90;;;;;;5106216;28;20238;-92
2021/03/04 00:54:32;;;;;;;6.80;2.50;;;12.50;99.90;;;;;;5107187;28;20218;-92
2021/03/04 00:57:03;;;;;;;7.50;3.10;;;12.40;99.90;;;;;;5127852;28;20198;-90
2021/03/04 00:59:34;;;;;;;6.03;2.50;;;12.40;99.90;;;;;;5125857;28;20537;-91
2021/03/04 01:02:05;;;;;;;7.50;2.80;;;12.20;99.90;;;;;;5128498;28;20241;-92
2021/03/04 01:04:35;;;;;;;4.70;2.37;;;12.10;99.90;;;;;;5112627;28;20198;-84
2021/03/04 01:07:06;;;;;;;13.70;3.40;;;12.00;99.90;;;;;;5119785;28;20244;-92
2021/03/04 01:09:42;;;;;;;6.00;2.80;;;11.80;99.90;;;;;;5129149;28;20210;-92
2021/03/04 01:12:16;;;;;;;6.07;2.30;;;11.80;99.90;;;;;;5132682;28;20182;-92
2021/03/04 01:14:49;;;;;;;6.43;2.80;;;11.80;99.90;;;;;;5125192;28;20270;-90
2021/03/04 01:17:20;;;;;;;6.10;2.73;;;11.70;99.90;;;;;;5131599;28;20194;-91
2021/03/04 01:19:51;;;;;;;5.10;2.90;;;11.60;99.90;;;;;;5132213;28;20194;-84
2021/03/04 01:22:23;;;;;;;8.60;2.80;;;11.50;99.90;;;;;;5117506;28;20235;-84
2021/03/04 01:24:55;;;;;;;6.07;2.47;;;11.40;99.90;;;;;;5124933;28;20202;-89
2021/03/04 01:27:26;;;;;;;6.90;2.50;;;11.30;99.90;;;;;;5135563;28;20201;-90
2021/03/04 01:30:01;;;;;;;6.77;2.60;;;11.20;99.90;;;;;;5120641;28;20190;-86
2021/03/04 01:32:34;;;;;;;6.90;2.50;;;11.20;99.90;;;;;;5110452;28;20206;-89
2021/03/04 01:35:25;;;;;;;4.77;2.70;;;11.10;99.90;;;;;;5101655;28;20214;-87
2021/03/04 01:38:00;;;;;;;3.90;2.23;;;11.00;99.90;;;;;;5111292;28;20301;-89
2021/03/04 01:40:33;;;;;;;4.43;2.20;;;10.90;99.90;;;;;;5116359;28;20235;-89
2021/03/04 01:43:05;;;;;;;7.80;2.97;;;10.70;99.90;;;;;;5081936;28;20693;-87
2021/03/04 01:45:35;;;;;;;6.53;2.90;;;10.70;99.90;;;;;;5098017;28;20207;-89
2021/03/04 01:48:07;;;;;;;5.93;2.87;;;10.60;99.90;;;;;;5097652;28;20302;-91
2021/03/04 01:50:38;;;;;;;7.10;2.60;;;10.50;99.90;;;;;;5100555;28;20242;-90
2021/03/04 01:53:09;;;;;;;5.97;2.40;;;10.40;99.90;;;;;;5100544;28;20206;-90
2021/03/04 01:55:43;;;;;;;7.60;2.87;;;10.30;99.90;;;;;;5108031;28;20720;-89
2021/03/04 01:58:14;;;;;;;5.53;2.77;;;10.20;99.90;;;;;;5102292;28;20558;-91
2021/03/04 02:00:45;;;;;;;10.60;2.90;;;10.10;99.90;;;;;;5098652;28;20202;-89
2021/03/04 02:03:19;;;;;;;5.03;2.77;;;10.00;99.90;;;;;;5097981;28;20308;-89
2021/03/04 02:05:50;;;;;;;5.60;2.60;;;9.80;99.90;;;;;;5102271;28;20255;-91
2021/03/04 02:08:25;;;;;;;7.13;3.60;;;9.70;99.90;;;;;;5088432;28;20227;-90
2021/03/04 02:11:06;;;;;;;10.43;4.13;;;9.60;99.90;;;;;;5097455;28;20267;-88
2021/03/04 02:13:41;;;;;;;10.20;4.27;;;9.50;99.90;;;;;;5115242;28;20237;-88
2021/03/04 02:16:19;;;;;;;6.73;3.67;;;9.30;99.90;;;;;;5114146;28;20264;-87
2021/03/04 02:19:06;;;;;;;8.03;2.93;;;9.20;99.90;;;;;;5096517;28;20211;-89
2021/03/04 02:21:49;;;;;;;9.00;3.30;;;9.10;99.90;;;;;;5107292;28;20659;-88
2021/03/04 02:24:33;;;;;;;7.00;3.80;;;9.00;99.90;;;;;;5113552;28;20213;-89
2021/03/04 02:27:09;;;;;;;5.53;2.80;;;9.00;99.90;;;;;;5106192;28;20224;-83
2021/03/04 02:29:44;;;;;;;7.13;3.03;;;8.90;99.90;;;;;;5108659;28;20206;-82
2021/03/04 02:32:15;;;;;;;8.90;3.50;;;8.80;99.90;;;;;;5110606;28;20313;-84
2021/03/04 02:34:50;;;;;;;9.57;6.00;;;8.60;99.90;;;;;;5113027;28;20234;-86
2021/03/04 02:37:22;;;;;;;8.23;5.43;;;8.50;99.90;;;;;;5115963;28;20599;-81
2021/03/04 02:39:55;;;;;;;7.53;4.20;;;8.40;99.90;;;;;;5113927;28;20647;-83
2021/03/04 02:42:27;;;;;;;6.37;3.60;;;8.40;99.90;;;;;;5113427;28;20207;-83
2021/03/04 02:44:59;;;;;;;6.93;3.37;;;8.30;99.90;;;;;;5101793;28;20655;-83
2021/03/04 02:47:29;;;;;;;9.20;3.60;;;8.30;99.90;;;;;;5107923;28;20206;-81
2021/03/04 02:49:59;;;;;;;5.17;2.87;;;8.20;99.90;;;;;;5111149;28;20677;-83
2021/03/04 02:52:30;;;;;;;6.33;3.03;;;8.10;99.90;;;;;;5115857;28;20244;-83
2021/03/04 02:55:00;;;;;;;7.37;3.03;;;8.10;99.90;;;;;;5111855;28;20266;-83
2021/03/04 02:57:33;;;;;;;5.93;3.10;;;8.00;99.90;;;;;;5109649;28;20205;-83
2021/03/04 03:00:06;;;;;;;5.03;2.90;;;8.00;99.90;;;;;;5110437;28;20247;-82
2021/03/04 03:02:37;;;;;;;8.40;3.30;;;7.90;99.90;;;;;;5100788;28;20212;-83
2021/03/04 03:05:09;;;;;;;6.67;4.37;;;7.80;99.90;;;;;;5112868;28;20262;-82
2021/03/04 03:07:43;;;;;;;7.67;5.00;;;7.70;99.90;;;;;;5113108;28;20206;-83
2021/03/04 03:10:13;;;;;;;9.53;4.70;;;7.70;99.90;;;;;;5111631;28;20293;-82
2021/03/04 03:12:47;;;;;;;8.40;4.00;;;7.70;99.90;;;;;;5111950;28;20206;-83
2021/03/04 03:15:18;;;;;;;5.70;2.87;;;7.60;99.90;;;;;;5110939;28;20273;-82
2021/03/04 03:17:48;;;;;;;6.07;3.20;;;7.60;99.90;;;;;;5108467;28;20698;-83
2021/03/04 03:20:20;;;;;;;5.80;3.07;;;7.60;99.90;;;;;;5105342;28;20329;-84
2021/03/04 03:22:51;;;;;;;4.27;2.57;;;7.50;99.90;;;;;;5111305;28;20210;-81
2021/03/04 03:25:20;;;;;;;5.67;2.77;;;7.50;99.90;;;;;;5111165;28;20320;-84
2021/03/04 03:27:52;;;;;;;6.57;3.67;;;7.50;99.90;;;;;;5109717;28;20227;-83
2021/03/04 03:30:26;;;;;;;8.17;4.20;;;7.40;99.90;;;;;;5110377;28;20622;-81
2021/03/04 03:33:02;;;;;;;9.20;3.73;;;7.50;99.90;;;;;;5111656;28;20198;-83
2021/03/04 03:35:33;;;;;;;5.87;3.50;;;7.50;99.90;;;;;;5108940;28;20659;-82
2021/03/04 03:38:04;;;;;;;6.53;3.23;;;7.50;99.90;;;;;;5103951;28;20243;-83
2021/03/04 03:40:36;;;;;;;9.70;3.77;;;7.40;99.90;;;;;;5113315;28;20282;-82
2021/03/04 03:43:10;;;;;;;6.27;3.30;;;7.30;99.90;;;;;;5112976;28;20205;-86
2021/03/04 03:45:47;;;;;;;13.27;4.27;;;7.20;99.90;;;;;;5112032;28;20259;-83
2021/03/04 03:48:26;;;;;;;5.70;3.43;;;7.20;99.90;;;;;;5114656;28;20238;-83
2021/03/04 03:50:59;;;;;;;6.20;3.80;;;7.10;99.90;;;;;;5112598;28;20647;-84
2021/03/04 03:53:29;;;;;;;12.53;4.60;;;7.00;99.90;;;;;;5117078;28;20210;-83
2021/03/04 03:56:00;;;;;;;8.93;4.27;;;7.00;99.90;;;;;;5117115;28;20250;-83
2021/03/04 03:58:33;;;;;;;8.80;4.53;;;7.10;99.90;;;;;;5116614;28;20247;-84
2021/03/04 04:01:24;;;;;;;6.50;4.43;;;7.20;99.90;;;;;;5108024;28;20285;-86
2021/03/04 04:03:58;;;;;;;9.30;4.57;;;7.20;99.90;;;;;;5108495;28;20206;-83
2021/03/04 04:06:29;;;;;;;7.33;4.90;;;7.20;99.90;;;;;;5107320;28;20210;-83
2021/03/04 04:09:00;;;;;;;12.97;5.10;;;7.20;99.90;;;;;;5112859;28;20255;-82
2021/03/04 04:11:31;;;;;;;9.47;5.40;;;7.10;99.90;;;;;;5112432;28;20234;-84
2021/03/04 04:14:02;;;;;;;9.20;5.27;;;7.10;99.90;;;;;;5112115;28;20226;-83
2021/03/04 04:16:33;;;;;;;10.53;5.20;;;7.00;99.90;;;;;;5113047;28;20195;-82
2021/03/04 04:19:04;;;;;;;9.00;4.83;;;6.90;99.90;;;;;;5113367;28;20199;-83
2021/03/04 04:21:34;;;;;;;11.70;5.07;;;6.90;99.90;;;;;;5113119;28;20261;-83
2021/03/04 04:24:05;;;;;;;8.93;5.13;;;6.90;99.90;;;;;;5113736;28;20206;-82
2021/03/04 04:26:34;;;;;;;12.43;5.30;;;6.80;99.90;;;;;;5112832;28;20252;-82
2021/03/04 04:29:05;;;;;;;11.03;5.10;;;6.70;99.90;;;;;;5105005;28;20202;-82
2021/03/04 04:31:36;;;;;;;9.93;5.13;;;6.70;99.90;;;;;;5109804;28;20245;-82
2021/03/04 04:34:06;;;;;;;11.27;4.97;;;6.60;99.90;;;;;;5112399;28;20214;-82
2021/03/04 04:36:36;;;;;;;9.77;4.90;;;6.50;99.90;;;;;;5112475;28;20254;-82
2021/03/04 04:39:06;;;;;;;10.17;5.03;;;6.40;99.90;;;;;;5100670;28;20194;-82
2021/03/04 04:41:37;;;;;;;8.97;4.80;;;6.40;99.90;;;;;;5111811;28;20260;-83
2021/03/04 04:44:09;;;;;;;10.07;4.97;;;6.30;99.90;;;;;;5110785;28;20218;-83
2021/03/04 04:46:39;;;;;;;11.30;5.33;;;6.20;99.90;;;;;;5092464;28;20232;-80
2021/03/04 04:49:08;;;;;;;10.93;4.60;;;6.10;99.90;;;;;;5110545;28;20290;-82
2021/03/04 04:51:38;;;;;;;9.27;5.27;;;6.10;99.90;;;;;;5106212;28;20234;-82
2021/03/04 04:54:08;;;;;;;9.97;5.13;;;6.00;99.90;;;;;;5102078;28;20214;-83
2021/03/04 04:56:38;;;;;;;12.47;5.50;;;6.00;99.90;;;;;;5111718;28;20203;-83
2021/03/04 04:59:09;;;;;;;13.43;6.83;;;6.00;99.90;;;;;;5094417;28;20634;-84
2021/03/04 05:01:39;;;;;;;12.73;7.10;;;6.00;99.90;;;;;;5111732;28;20785;-83
2021/03/04 05:04:13;;;;;;;16.23;8.10;;;6.00;99.90;;;;;;5115437;28;20202;-85
2021/03/04 05:06:47;;;;;;;17.97;10.80;;;6.00;99.90;;;;;;5105838;28;20240;-88
2021/03/04 05:09:21;;;;;;;17.80;10.07;;;5.90;99.90;;;;;;5120024;28;20231;-86
2021/03/04 05:11:52;;;;;;;9.87;6.07;;;5.90;99.90;;;;;;5121710;28;20315;-87
2021/03/04 05:14:29;;;;;;;11.77;6.83;;;5.80;99.90;;;;;;4763276;28;9999765;-88
2021/03/04 05:17:00;;;;;;;11.87;6.93;;;5.90;99.90;;;;;;5122760;28;20313;-83
2021/03/04 05:19:31;;;;;;;11.00;6.50;;;5.80;99.90;;;;;;5119368;28;20624;-86
2021/03/04 05:22:02;;;;;;;10.43;5.53;;;5.70;99.90;;;;;;5092942;28;20214;-85
2021/03/04 05:24:33;;;;;;;12.97;6.20;;;5.70;99.90;;;;;;5102968;28;20224;-85
2021/03/04 05:27:05;;;;;;;14.40;6.70;;;5.70;99.90;;;;;;5090804;28;20210;-85
2021/03/04 05:29:38;;;;;;;8.27;5.00;;;5.60;99.90;;;;;;5099281;28;20218;-85
2021/03/04 05:32:09;;;;;;;10.50;5.47;;;5.60;99.90;;;;;;5095184;28;20313;-82
2021/03/04 05:34:41;;;;;;;18.03;9.67;;;5.60;99.90;;;;;;5094694;28;20683;-85
2021/03/04 05:37:12;;;;;;;25.27;12.87;;;5.50;99.90;;;;;;5104172;28;20206;-84
2021/03/04 05:39:43;;;;;;;19.87;8.77;;;5.50;99.90;;;;;;5114566;28;20210;-86
2021/03/04 05:42:13;;;;;;;26.23;10.53;;;5.40;99.90;;;;;;5115564;28;20203;-86
2021/03/04 05:44:46;;;;;;;22.67;10.37;;;5.40;99.90;;;;;;5104990;28;20614;-85
2021/03/04 05:47:18;;;;;;;19.13;9.23;;;5.30;99.90;;;;;;5116556;28;20613;-86
2021/03/04 05:49:58;;;;;;;11.23;5.53;;;5.30;99.90;;;;;;5101989;28;20722;-85
2021/03/04 05:52:32;;;;;;;10.07;4.87;;;5.30;99.90;;;;;;5090259;28;20230;-85
2021/03/04 05:55:05;;;;;;;8.57;5.67;;;5.20;99.90;;;;;;5121909;28;20208;-88
2021/03/04 05:57:36;;;;;;;12.87;6.90;;;5.20;99.90;;;;;;5124773;28;20251;-88
2021/03/04 06:00:11;;;;;;;18.63;9.70;;;5.20;99.90;;;;;;5124129;28;20206;-87
2021/03/04 06:02:44;;;;;;;9.03;4.90;;;5.10;99.90;;;;;;5109687;28;20992;-86
2021/03/04 06:05:15;;;;;;;9.00;4.40;;;5.10;99.90;;;;;;5115356;28;20210;-82
2021/03/04 06:07:46;;;;;;;9.30;4.20;;;5.00;99.90;;;;;;5114235;28;20622;-84
2021/03/04 06:10:18;;;;;;;10.97;3.77;;;5.00;99.90;;;;;;5114882;28;20247;-83
2021/03/04 06:12:48;;;;;;;12.03;4.53;;;5.00;99.90;;;;;;5116336;28;20233;-83
2021/03/04 06:15:23;;;;;;;8.87;4.63;;;5.00;99.90;;;;;;5107439;28;20199;-82
2021/03/04 06:17:57;;;;;;;7.27;4.23;;;4.90;99.90;;;;;;5107550;28;20208;-84
2021/03/04 06:20:37;;;;;;;11.30;4.37;;;4.90;99.90;;;;;;5132026;28;20190;-82
2021/03/04 06:23:08;;;;;;;7.33;4.03;;;4.90;99.90;;;;;;5137784;28;20200;-86
2021/03/04 06:25:38;;;;;;;7.10;3.73;;;4.80;99.90;;;;;;5123521;28;20202;-83
2021/03/04 06:28:08;;;;;;;11.80;4.40;;;4.80;99.90;;;;;;5138304;28;20239;-80
2021/03/04 06:30:40;;;;;;;10.67;4.07;;;4.80;99.90;;;;;;5129424;28;20202;-82
2021/03/04 06:33:11;;;;;;;14.33;4.60;;;4.70;99.90;;;;;;5111136;28;20372;-82
2021/03/04 06:35:43;;;;;;;10.87;3.87;;;4.70;99.90;;;;;;5118215;28;20220;-82
2021/03/04 06:38:18;;;;;;;13.03;4.87;;;4.70;99.90;;;;;;5116180;28;20229;-82
2021/03/04 06:40:50;;;;;;;10.50;4.20;;;4.70;99.90;;;;;;5114799;28;20255;-82
2021/03/04 06:43:21;;;;;;;6.60;4.30;;;4.60;99.90;;;;;;5113622;28;20292;-82
2021/03/04 06:45:52;;;;;;;10.50;5.30;;;4.60;99.90;;;;;;5114607;28;20674;-82
2021/03/04 06:48:22;;;;;;;10.00;5.37;;;4.60;99.90;;;;;;5113558;28;20225;-82
2021/03/04 06:50:59;;;;;;;11.63;5.67;;;4.60;99.90;;;;;;5111816;28;20194;-83
2021/03/04 06:53:30;;;;;;;9.33;6.93;;;4.60;99.90;;;;;;5112846;28;20252;-83
2021/03/04 06:56:02;;;;;;;11.33;6.83;;;4.50;99.90;;;;;;5113072;28;20209;-82
2021/03/04 06:58:33;;;;;;;8.27;5.70;;;4.50;99.90;;;;;;5113449;28;20240;-83
2021/03/04 07:01:12;;;;;;;13.00;5.23;;;4.50;99.90;;;;;;5094250;28;20772;-82
2021/03/04 07:03:44;;;;;;;9.07;5.37;;;4.50;99.90;;;;;;5111972;28;20210;-83
2021/03/04 07:06:37;;;;;;;7.87;4.57;;;4.50;99.90;;;;;;5114676;28;20198;-83
2021/03/04 07:09:09;;;;;;;7.57;4.70;;;4.40;99.90;;;;;;5111282;28;20258;-83
2021/03/04 07:11:43;;;;;;;10.53;5.17;;;4.40;99.90;;;;;;5114709;28;20236;-83
2021/03/04 07:14:16;;;;;;;12.90;4.93;;;4.30;99.90;;;;;;5079589;28;20213;-82
2021/03/04 07:16:48;;;;;;;8.37;4.57;;;4.30;99.90;;;;;;5110482;28;20301;-84
2021/03/04 07:19:19;;;;;;;8.87;5.20;;;4.20;99.90;;;;;;5114110;28;20210;-83
2021/03/04 07:21:50;;;;;;;12.97;7.20;;;4.20;99.90;;;;;;5114233;28;20694;-83
2021/03/04 07:24:22;;;;;;;11.13;7.23;;;4.10;99.90;;;;;;5112779;28;20605;-85
2021/03/04 07:26:52;;;;;;;9.07;5.33;;;4.10;99.90;;;;;;5101470;28;20260;-84
2021/03/04 07:29:24;;;;;;;8.87;5.33;;;4.10;99.90;;;;;;5100397;28;20255;-83
2021/03/04 07:31:57;;;;;;;9.50;5.53;;;4.00;99.90;;;;;;5114948;28;20580;-83
2021/03/04 07:34:28;;;;;;;8.00;5.60;;;4.00;99.90;;;;;;5113504;28;20206;-82
2021/03/04 07:36:59;;;;;;;6.57;4.63;;;4.00;99.90;;;;;;5112769;28;20250;-82
2021/03/04 07:39:31;;;;;;;12.57;5.00;;;4.00;99.90;;;;;;5098529;28;20675;-82
2021/03/04 07:42:03;;;;;;;10.77;4.37;;;3.90;99.90;;;;;;5094955;28;20213;-83
2021/03/04 07:44:35;;;;;;;8.60;3.90;;;3.90;99.90;;;;;;5111069;28;20218;-83
2021/03/04 07:47:10;;;;;;;7.90;4.30;;;3.90;99.90;;;;;;5114386;28;20245;-83
2021/03/04 07:49:45;;;;;;;11.63;4.60;;;3.80;99.90;;;;;;5114896;28;20202;-83
2021/03/04 07:52:19;;;;;;;9.20;4.50;;;3.80;99.90;;;;;;5113246;28;20701;-82
2021/03/04 07:54:52;;;;;;;6.90;4.70;;;3.80;99.90;;;;;;5086413;28;20678;-82
2021/03/04 07:57:25;;;;;;;7.60;4.23;;;3.80;99.90;;;;;;5111271;28;20241;-83
2021/03/04 07:59:57;;;;;;;12.57;5.30;;;3.80;99.90;;;;;;5113186;28;20194;-83
2021/03/04 08:02:31;;;;;;;9.80;4.90;;;3.80;99.90;;;;;;5098134;28;20626;-82
2021/03/04 08:05:14;;;;;;;8.80;4.20;;;3.80;99.90;;;;;;5108002;28;20564;-85
2021/03/04 08:07:47;;;;;;;10.07;4.53;;;3.70;99.90;;;;;;5113213;28;20206;-84
2021/03/04 08:10:19;;;;;;;9.67;4.67;;;3.70;99.90;;;;;;5094516;28;20209;-83
2021/03/04 08:12:51;;;;;;;8.63;4.20;;;3.60;99.90;;;;;;5093208;28;20234;-84
2021/03/04 08:15:31;;;;;;;10.63;4.60;;;3.60;99.90;;;;;;5110646;28;20202;-83
2021/03/04 08:18:06;;;;;;;6.43;3.80;;;3.60;99.90;;;;;;5111525;28;20235;-84
2021/03/04 08:20:37;;;;;;;10.73;4.40;;;3.60;99.90;;;;;;5093192;28;20272;-83
2021/03/04 08:23:08;;;;;;;9.20;4.03;;;3.60;99.90;;;;;;5093046;28;20215;-83
2021/03/04 08:25:41;;;;;;;8.83;4.20;;;3.60;99.90;;;;;;5103323;28;20235;-83
2021/03/04 08:28:23;;;;;;;13.23;4.60;;;3.50;99.90;;;;;;5113141;28;20194;-83
2021/03/04 08:30:55;;;;;;;11.77;3.97;;;3.50;99.90;;;;;;5112459;28;20223;-84
2021/03/04 08:33:28;;;;;;;12.33;4.20;;;3.50;99.90;;;;;;5112446;28;20981;-83
2021/03/04 08:36:00;;;;;;;10.20;4.43;;;3.50;99.90;;;;;;5113511;28;20317;-83
2021/03/04 08:38:40;;;;;;;10.00;4.20;;;3.50;99.90;;;;;;5114404;28;20213;-83
2021/03/04 08:41:10;;;;;;;11.00;4.03;;;3.60;99.90;;;;;;5117476;28;20313;-83
2021/03/04 08:43:41;;;;;;;8.07;4.60;;;3.60;99.90;;;;;;5116593;28;20202;-83
2021/03/04 08:46:12;;;;;;;8.93;4.23;;;3.50;99.90;;;;;;5117595;28;20207;-84
2021/03/04 08:48:51;;;;;;;8.73;4.80;;;3.50;99.90;;;;;;5118054;28;20202;-83
2021/03/04 08:51:22;;;;;;;10.40;5.13;;;3.50;99.90;;;;;;5122707;28;20215;-84
2021/03/04 08:54:09;;;;;;;17.27;7.03;;;3.60;99.90;;;;;;5133799;28;20199;-84
2021/03/04 08:56:51;;;;;;;15.00;5.83;;;3.90;99.90;;;;;;5117109;28;20203;-84
2021/03/04 08:59:25;;;;;;;13.70;7.60;;;3.90;99.90;;;;;;5108005;28;20263;-83
2021/03/04 09:01:57;;;;;;;18.20;7.23;;;4.10;99.90;;;;;;5104625;28;20263;-83
2021/03/04 09:04:30;;;;;;;14.47;7.23;;;4.10;99.90;;;;;;5099062;28;20207;-82
2021/03/04 09:07:03;;;;;;;14.90;7.67;;;4.10;99.90;;;;;;5096560;28;20227;-82
2021/03/04 09:09:33;;;;;;;12.53;7.87;;;4.10;99.90;;;;;;5095791;28;20206;-83
2021/03/04 09:12:05;;;;;;;12.93;7.03;;;4.20;99.90;;;;;;5096065;28;20229;-82
2021/03/04 09:14:36;;;;;;;14.40;7.87;;;4.10;99.90;;;;;;5103901;28;20281;-82
2021/03/04 09:17:06;;;;;;;15.03;7.17;;;4.10;99.90;;;;;;5098231;28;20218;-82
2021/03/04 09:19:41;;;;;;;11.73;7.03;;;4.00;99.90;;;;;;5115782;28;20285;-83
2021/03/04 09:22:12;;;;;;;12.47;7.30;;;3.90;99.90;;;;;;5115660;28;20218;-82
2021/03/04 09:24:47;;;;;;;11.17;6.97;;;4.00;99.90;;;;;;5114467;28;20603;-82
2021/03/04 09:27:20;;;;;;;14.47;6.87;;;4.10;99.90;;;;;;5110042;28;20229;-84
2021/03/04 09:29:50;;;;;;;11.83;6.37;;;4.10;99.90;;;;;;5093165;28;20264;-84
2021/03/04 09:32:32;;;;;;;12.97;7.57;;;4.00;99.90;;;;;;5095983;28;20734;-84
2021/03/04 09:35:14;;;;;;;14.53;7.10;;;4.00;99.90;;;;;;5094859;28;20215;-84
2021/03/04 09:37:47;;;;;;;16.03;7.57;;;4.00;99.90;;;;;;5101203;28;20211;-82
2021/03/04 09:40:30;;;;;;;14.23;7.70;;;4.10;99.90;;;;;;5114543;28;20202;-82
2021/03/04 09:43:00;;;;;;;15.40;8.10;;;4.10;99.90;;;;;;5115428;28;20206;-84
2021/03/04 09:45:32;;;;;;;16.40;8.03;;;4.10;99.90;;;;;;5114568;28;20288;-83
2021/03/04 09:48:03;;;;;;;17.77;8.60;;;4.10;99.90;;;;;;5109190;28;20205;-83
2021/03/04 09:50:36;;;;;;;15.63;8.50;;;4.10;99.90;;;;;;5114422;28;20206;-82
2021/03/04 09:53:11;;;;;;;12.30;7.40;;;4.10;99.90;;;;;;5076856;28;20262;-84
2021/03/04 09:55:43;;;;;;;15.87;7.27;;;4.10;99.90;;;;;;5094632;28;20742;-82
2021/03/04 09:58:15;;;;;;;16.03;7.33;;;4.10;99.90;;;;;;5094934;28;20252;-82
2021/03/04 10:00:46;;;;;;;13.60;7.10;;;4.20;99.90;;;;;;5093801;28;20203;-82
2021/03/04 10:03:36;;;;;;;14.97;6.57;;;4.10;99.90;;;;;;5093534;28;20229;-83
2021/03/04 10:06:20;;;;;;;15.23;7.13;;;4.20;99.90;;;;;;5108089;28;20241;-82
2021/03/04 10:08:54;;;;;;;17.27;8.43;;;4.10;99.90;;;;;;5115591;28;20241;-83
2021/03/04 10:11:25;;;;;;;13.17;6.47;;;4.20;99.90;;;;;;5115037;28;20654;-82
2021/03/04 10:14:07;;;;;;;16.73;7.37;;;4.30;99.90;;;;;;5114541;28;20202;-84
2021/03/04 10:16:37;;;;;;;14.07;6.40;;;4.30;99.90;;;;;;5115241;28;20313;-83
2021/03/04 10:19:09;;;;;;;19.03;7.30;;;4.30;99.90;;;;;;5116422;28;20228;-84
2021/03/04 10:21:41;;;;;;;16.37;7.70;;;4.40;99.90;;;;;;5115753;28;20345;-83
2021/03/04 10:24:12;;;;;;;15.10;6.30;;;4.40;99.90;;;;;;5114027;28;20326;-85
2021/03/04 10:26:42;;;;;;;14.63;6.47;;;4.50;99.90;;;;;;5115886;28;20206;-84
2021/03/04 10:29:13;;;;;;;11.17;6.13;;;4.50;99.90;;;;;;5116030;28;20234;-84
2021/03/04 10:31:44;;;;;;;14.53;6.63;;;4.40;99.90;;;;;;5109680;28;20234;-84
2021/03/04 10:34:14;;;;;;;16.67;6.27;;;4.40;99.90;;;;;;5093651;28;20264;-85
2021/03/04 10:36:47;;;;;;;10.70;5.57;;;4.40;99.90;;;;;;5095196;28;20255;-85
2021/03/04 10:39:18;;;;;;;12.13;5.83;;;4.30;99.90;;;;;;5094916;28;20230;-84
2021/03/04 10:41:50;;;;;;;13.23;6.33;;;4.30;99.90;;;;;;5109999;28;20210;-83
2021/03/04 10:44:21;;;;;;;10.23;5.33;;;4.20;99.90;;;;;;5114808;28;20217;-84
2021/03/04 10:46:51;;;;;;;10.23;5.40;;;4.20;99.90;;;;;;5113841;28;20301;-84
2021/03/04 10:49:22;;;;;;;12.47;5.47;;;4.10;99.90;;;;;;5115537;28;20283;-84
2021/03/04 10:51:53;;;;;;;9.90;5.07;;;4.00;99.90;;;;;;5117495;28;20295;-84
2021/03/04 10:54:24;;;;;;;10.77;5.37;;;4.00;99.90;;;;;;5128262;28;20662;-85
2021/03/04 10:56:54;;;;;;;14.93;6.23;;;3.90;99.90;;;;;;5125672;28;20206;-84
2021/03/04 10:59:24;;;;;;;9.23;5.30;;;3.80;99.90;;;;;;5117785;28;20579;-84
2021/03/04 11:01:55;;;;;;;12.23;5.33;;;3.70;99.90;;;;;;5116279;28;20246;-84
2021/03/04 11:04:26;;;;;;;11.80;5.40;;;3.70;99.90;;;;;;5115941;28;20237;-84
2021/03/04 11:06:58;;;;;;;10.80;5.30;;;3.80;99.90;;;;;;5115058;28;20198;-83
2021/03/04 11:09:28;;;;;;;11.80;5.13;;;3.80;99.90;;;;;;5114267;28;20731;-83
2021/03/04 11:12:02;;;;;;;8.87;5.07;;;3.70;99.90;;;;;;5114424;28;20275;-83
2021/03/04 11:14:33;;;;;;;13.77;4.67;;;3.70;99.90;;;;;;5113171;28;20198;-83
2021/03/04 11:17:03;;;;;;;16.60;5.13;;;3.60;99.90;;;;;;5114420;28;20203;-84
2021/03/04 11:19:34;;;;;;;8.60;5.37;;;3.60;99.90;;;;;;5117325;28;20207;-82
2021/03/04 11:22:07;;;;;;;13.33;5.50;;;3.80;99.90;;;;;;5117728;28;20218;-82
2021/03/04 11:24:38;;;;;;;13.17;4.67;;;3.90;99.90;;;;;;5097844;28;20205;-82
2021/03/04 11:27:09;;;;;;;12.70;4.90;;;4.00;99.90;;;;;;5127050;28;20198;-83
2021/03/04 11:29:40;;;;;;;11.03;5.23;;;4.00;99.90;;;;;;5120621;28;20202;-83
2021/03/04 11:32:14;;;;;;;10.03;5.50;;;3.90;99.90;;;;;;5115934;28;20294;-82
2021/03/04 11:34:45;;;;;;;12.20;5.30;;;3.90;99.90;;;;;;5115771;28;20198;-83
2021/03/04 11:37:18;;;;;;;13.63;6.13;;;3.90;99.90;;;;;;5109132;28;20199;-84
2021/03/04 11:39:49;;;;;;;14.53;5.67;;;3.90;99.90;;;;;;5094598;28;20207;-85
2021/03/04 11:42:19;;;;;;;12.60;5.10;;;3.90;99.90;;;;;;5094110;28;20258;-84
2021/03/04 11:44:49;;;;;;;13.47;5.73;;;3.90;99.90;;;;;;5092667;28;20520;-83
2021/03/04 11:47:19;;;;;;;15.60;5.30;;;3.90;99.90;;;;;;5093834;28;20222;-83
2021/03/04 11:49:49;;;;;;;10.63;5.10;;;3.90;99.90;;;;;;5093467;28;20213;-84
2021/03/04 11:52:22;;;;;;;14.17;5.20;;;3.90;99.90;;;;;;5093093;28;20230;-85
2021/03/04 11:54:52;;;;;;;17.60;5.30;;;3.90;99.90;;;;;;5102686;28;20202;-84
2021/03/04 11:57:23;;;;;;;10.60;4.60;;;3.90;99.90;;;;;;5113249;28;20281;-85
2021/03/04 11:59:55;;;;;;;10.70;5.10;;;3.90;99.90;;;;;;5112905;28;20292;-86
2021/03/04 12:02:26;;;;;;;11.60;5.23;;;4.00;99.90;;;;;;5113659;28;20711;-85
2021/03/04 12:04:57;;;;;;;10.67;4.93;;;4.00;99.90;;;;;;5112743;28;20198;-85
2021/03/04 12:07:28;;;;;;;14.30;4.93;;;4.00;99.90;;;;;;5113502;28;20248;-84
2021/03/04 12:09:59;;;;;;;8.23;4.53;;;4.00;99.90;;;;;;5112902;28;20260;-84
2021/03/04 12:12:30;;;;;;;10.73;4.50;;;4.00;99.90;;;;;;5113302;28;20597;-84
2021/03/04 12:15:00;;;;;;;11.17;4.73;;;3.90;99.90;;;;;;5111740;28;20211;-83
2021/03/04 12:17:31;;;;;;;10.30;5.50;;;3.90;99.90;;;;;;5112642;28;20286;-82
2021/03/04 12:20:01;;;;;;;10.23;4.87;;;3.90;99.90;;;;;;5108421;28;20621;-82
2021/03/04 12:22:34;;;;;;;10.10;4.77;;;3.90;99.90;;;;;;5090724;28;20219;-82
2021/03/04 12:25:05;;;;;;;14.73;5.33;;;3.90;99.90;;;;;;5089387;28;20195;-82
2021/03/04 12:27:36;;;;;;;11.87;4.63;;;3.90;99.90;;;;;;5102079;28;20220;-83
2021/03/04 12:30:08;;;;;;;11.33;4.73;;;3.80;99.90;;;;;;5110416;28;20289;-82
2021/03/04 12:32:39;;;;;;;20.43;5.50;;;3.80;99.90;;;;;;5111720;28;20222;-84
2021/03/04 12:35:12;;;;;;;15.23;5.13;;;3.90;99.90;;;;;;5093620;28;20664;-83
2021/03/04 12:37:45;;;;;;;11.70;6.13;;;3.90;99.90;;;;;;5113365;28;20202;-86
2021/03/04 12:40:17;;;;;;;16.37;5.23;;;4.00;99.90;;;;;;5114049;28;20315;-85
2021/03/04 12:42:48;;;;;;;9.90;4.77;;;4.00;99.90;;;;;;5113454;28;20262;-85
2021/03/04 12:45:18;;;;;;;12.70;5.30;;;4.10;99.90;;;;;;5111636;28;20209;-84
2021/03/04 12:47:49;;;;;;;10.73;4.83;;;4.00;99.90;;;;;;5113453;28;20290;-83
2021/03/04 12:50:20;;;;;;;10.20;4.33;;;4.00;99.90;;;;;;5112814;28;20218;-84
2021/03/04 12:52:53;;;;;;;7.73;3.90;;;4.00;99.90;;;;;;5112798;28;20705;-84
2021/03/04 12:55:25;;;;;;;10.90;4.80;;;4.00;99.90;;;;;;5112364;28;20226;-83
2021/03/04 12:57:57;;;;;;;8.67;3.73;;;4.00;99.90;;;;;;5112439;28;20565;-83
2021/03/04 13:00:29;;;;;;;8.97;3.90;;;4.00;99.90;;;;;;5112988;28;20255;-82
2021/03/04 13:02:59;;;;;;;12.53;3.90;;;4.00;99.90;;;;;;5080567;28;20206;-81
2021/03/04 13:05:31;;;;;;;6.97;3.83;;;3.90;99.90;;;;;;5109843;28;20202;-82
2021/03/04 13:08:04;;;;;;;9.57;3.80;;;3.90;99.90;;;;;;5078195;28;20616;-82
2021/03/04 13:10:35;;;;;;;11.30;4.63;;;3.90;99.90;;;;;;5092822;28;20270;-82
2021/03/04 13:13:06;;;;;;;11.13;4.30;;;3.80;99.90;;;;;;5112089;28;20237;-82
2021/03/04 13:15:37;;;;;;;9.23;3.83;;;3.80;99.90;;;;;;5094597;28;20211;-82
2021/03/04 13:18:08;;;;;;;11.10;4.03;;;3.80;99.90;;;;;;5095182;28;20218;-81